sensor_id;sensor_type;location;lat;lon;timestamp;pressure;altitude;pressure_sealevel;temperature;humidity
42067;BME280;27734;47.028;28.820;2023-04-07T00:01:10;100251.48;;;3.42;100.00
42067;BME280;27734;47.028;28.820;2023-04-07T00:03:43;100254.77;;;3.39;100.00
42067;BME280;27734;47.028;28.820;2023-04-07T00:06:16;100258.28;;;3.40;100.00
42067;BME280;27734;47.028;28.820;2023-04-07T00:08:48;100258.28;;;3.40;100.00
42067;BME280;27734;47.028;28.820;2023-04-07T00:11:20;100253.79;;;3.37;100.00
42067;BME280;27734;47.028;28.820;2023-04-07T00:13:53;100251.11;;;3.36;100.00
42067;BME280;27734;47.028;28.820;2023-04-07T00:16:25;100257.08;;;3.35;100.00
42067;BME280;27734;47.028;28.820;2023-04-07T00:18:57;100258.89;;;3.36;100.00
42067;BME280;27734;47.028;28.820;2023-04-07T00:21:30;100251.80;;;3.33;100.00
42067;BME280;27734;47.028;28.820;2023-04-07T00:24:02;100251.70;;;3.32;100.00
42067;BME280;27734;47.028;28.820;2023-04-07T00:26:34;100254.20;;;3.30;100.00
42067;BME280;27734;47.028;28.820;2023-04-07T00:29:07;100266.29;;;3.30;100.00
42067;BME280;27734;47.028;28.820;2023-04-07T00:31:39;100248.05;;;3.28;100.00
42067;BME280;27734;47.028;28.820;2023-04-07T00:34:11;100255.92;;;3.30;100.00
42067;BME280;27734;47.028;28.820;2023-04-07T00:36:44;100249.02;;;3.30;100.00
42067;BME280;27734;47.028;28.820;2023-04-07T00:39:22;100251.62;;;3.30;100.00
42067;BME280;27734;47.028;28.820;2023-04-07T00:41:54;100251.52;;;3.29;100.00
42067;BME280;27734;47.028;28.820;2023-04-07T00:44:26;100250.73;;;3.30;100.00
42067;BME280;27734;47.028;28.820;2023-04-07T00:46:59;100257.53;;;3.28;100.00
42067;BME280;27734;47.028;28.820;2023-04-07T00:49:31;100258.33;;;3.27;100.00
42067;BME280;27734;47.028;28.820;2023-04-07T00:52:05;100260.92;;;3.27;100.00
42067;BME280;27734;47.028;28.820;2023-04-07T00:54:37;100252.34;;;3.28;100.00
42067;BME280;27734;47.028;28.820;2023-04-07T00:57:10;100255.73;;;3.27;100.00
42067;BME280;27734;47.028;28.820;2023-04-07T00:59:42;100260.03;;;3.26;100.00
42067;BME280;27734;47.028;28.820;2023-04-07T01:02:17;100257.34;;;3.24;100.00
42067;BME280;27734;47.028;28.820;2023-04-07T01:04:58;100267.72;;;3.24;100.00
42067;BME280;27734;47.028;28.820;2023-04-07T01:07:42;100261.70;;;3.26;100.00
42067;BME280;27734;47.028;28.820;2023-04-07T01:10:21;100268.00;;;3.29;100.00
42067;BME280;27734;47.028;28.820;2023-04-07T01:13:07;100262.17;;;3.33;100.00
42067;BME280;27734;47.028;28.820;2023-04-07T01:15:45;100264.07;;;3.36;100.00
42067;BME280;27734;47.028;28.820;2023-04-07T01:18:23;100271.16;;;3.38;100.00
42067;BME280;27734;47.028;28.820;2023-04-07T01:21:01;100265.14;;;3.39;100.00
42067;BME280;27734;47.028;28.820;2023-04-07T01:23:48;100271.25;;;3.40;100.00
42067;BME280;27734;47.028;28.820;2023-04-07T01:26:25;100272.92;;;3.39;100.00
42067;BME280;27734;47.028;28.820;2023-04-07T01:32:18;100267.73;;;3.39;100.00
42067;BME280;27734;47.028;28.820;2023-04-07T01:34:52;100266.85;;;3.39;100.00
42067;BME280;27734;47.028;28.820;2023-04-07T01:37:27;100270.42;;;3.41;100.00
42067;BME280;27734;47.028;28.820;2023-04-07T01:40:00;100264.35;;;3.40;100.00
42067;BME280;27734;47.028;28.820;2023-04-07T01:42:33;100262.64;;;3.41;100.00
42067;BME280;27734;47.028;28.820;2023-04-07T01:45:09;100266.34;;;3.45;100.00
42067;BME280;27734;47.028;28.820;2023-04-07T01:47:42;100256.94;;;3.47;100.00
42067;BME280;27734;47.028;28.820;2023-04-07T01:50:15;100261.43;;;3.49;100.00
42067;BME280;27734;47.028;28.820;2023-04-07T01:52:48;100264.81;;;3.48;100.00
42067;BME280;27734;47.028;28.820;2023-04-07T01:55:20;100267.22;;;3.45;100.00
42067;BME280;27734;47.028;28.820;2023-04-07T01:58:06;100269.02;;;3.46;100.00
42067;BME280;27734;47.028;28.820;2023-04-07T02:00:40;100268.30;;;3.49;100.00
42067;BME280;27734;47.028;28.820;2023-04-07T02:03:22;100272.69;;;3.50;100.00
42067;BME280;27734;47.028;28.820;2023-04-07T02:05:56;100272.78;;;3.51;100.00
42067;BME280;27734;47.028;28.820;2023-04-07T02:08:33;100264.81;;;3.48;100.00
42067;BME280;27734;47.028;28.820;2023-04-07T02:11:07;100277.78;;;3.48;100.00
42067;BME280;27734;47.028;28.820;2023-04-07T02:13:42;100270.80;;;3.47;100.00
42067;BME280;27734;47.028;28.820;2023-04-07T02:16:17;100275.00;;;3.45;100.00
42067;BME280;27734;47.028;28.820;2023-04-07T02:18:50;100272.59;;;3.48;100.00
42067;BME280;27734;47.028;28.820;2023-04-07T02:21:24;100277.97;;;3.51;100.00
42067;BME280;27734;47.028;28.820;2023-04-07T02:23:56;100277.97;;;3.51;100.00
42067;BME280;27734;47.028;28.820;2023-04-07T02:26:34;100284.96;;;3.52;100.00
42067;BME280;27734;47.028;28.820;2023-04-07T02:29:07;100283.16;;;3.51;100.00
42067;BME280;27734;47.028;28.820;2023-04-07T02:31:40;100279.68;;;3.51;100.00
42067;BME280;27734;47.028;28.820;2023-04-07T02:34:12;100282.19;;;3.49;100.00
42067;BME280;27734;47.028;28.820;2023-04-07T02:36:45;100285.66;;;3.50;100.00
42067;BME280;27734;47.028;28.820;2023-04-07T02:39:17;100283.16;;;3.51;100.00
42067;BME280;27734;47.028;28.820;2023-04-07T02:41:49;100289.42;;;3.55;100.00
42067;BME280;27734;47.028;28.820;2023-04-07T02:44:22;100294.70;;;3.56;100.00
42067;BME280;27734;47.028;28.820;2023-04-07T02:46:54;100281.82;;;3.58;100.00
42067;BME280;27734;47.028;28.820;2023-04-07T02:49:27;100284.59;;;3.61;100.00
42067;BME280;27734;47.028;28.820;2023-04-07T02:51:59;100287.28;;;3.63;100.00
42067;BME280;27734;47.028;28.820;2023-04-07T02:54:32;100292.48;;;3.63;100.00
42067;BME280;27734;47.028;28.820;2023-04-07T02:57:07;100296.08;;;3.65;100.00
42067;BME280;27734;47.028;28.820;2023-04-07T02:59:40;100291.87;;;3.67;100.00
42067;BME280;27734;47.028;28.820;2023-04-07T03:02:13;100297.15;;;3.68;100.00
42067;BME280;27734;47.028;28.820;2023-04-07T03:04:45;100292.84;;;3.69;100.00
42067;BME280;27734;47.028;28.820;2023-04-07T03:07:18;100292.84;;;3.69;100.00
42067;BME280;27734;47.028;28.820;2023-04-07T03:09:51;100294.64;;;3.70;100.00
42067;BME280;27734;47.028;28.820;2023-04-07T03:12:23;100303.41;;;3.72;100.00
42067;BME280;27734;47.028;28.820;2023-04-07T03:14:55;100302.61;;;3.73;100.00
42067;BME280;27734;47.028;28.820;2023-04-07T03:17:29;100298.31;;;3.73;100.00
42067;BME280;27734;47.028;28.820;2023-04-07T03:20:02;100309.76;;;3.77;100.00
42067;BME280;27734;47.028;28.820;2023-04-07T03:22:35;100303.78;;;3.78;100.00
42067;BME280;27734;47.028;28.820;2023-04-07T03:25:09;100307.34;;;3.80;100.00
42067;BME280;27734;47.028;28.820;2023-04-07T03:27:42;100303.87;;;3.80;100.00
42067;BME280;27734;47.028;28.820;2023-04-07T03:30:15;100300.48;;;3.81;100.00
42067;BME280;27734;47.028;28.820;2023-04-07T03:32:48;100308.36;;;3.82;100.00
42067;BME280;27734;47.028;28.820;2023-04-07T03:35:20;100307.44;;;3.82;100.00
42067;BME280;27734;47.028;28.820;2023-04-07T03:37:52;100314.52;;;3.84;100.00
42067;BME280;27734;47.028;28.820;2023-04-07T03:40:25;100312.91;;;3.86;100.00
42067;BME280;27734;47.028;28.820;2023-04-07T03:42:57;100313.91;;;3.88;100.00
42067;BME280;27734;47.028;28.820;2023-04-07T03:45:29;100317.48;;;3.90;100.00
42067;BME280;27734;47.028;28.820;2023-04-07T03:48:01;100327.96;;;3.92;100.00
42067;BME280;27734;47.028;28.820;2023-04-07T03:50:34;100331.53;;;3.94;100.00
42067;BME280;27734;47.028;28.820;2023-04-07T03:53:17;100335.05;;;3.94;100.00
42067;BME280;27734;47.028;28.820;2023-04-07T03:55:50;100336.91;;;3.97;100.00
42067;BME280;27734;47.028;28.820;2023-04-07T03:58:29;100340.42;;;3.98;100.00
42067;BME280;27734;47.028;28.820;2023-04-07T04:01:01;100339.59;;;3.99;100.00
42067;BME280;27734;47.028;28.820;2023-04-07T04:03:34;100344.88;;;4.00;100.00
42067;BME280;27734;47.028;28.820;2023-04-07T04:06:17;100351.88;;;4.01;100.00
42067;BME280;27734;47.028;28.820;2023-04-07T04:08:50;100352.85;;;4.03;100.00
42067;BME280;27734;47.028;28.820;2023-04-07T04:11:23;100347.75;;;4.05;100.00
42067;BME280;27734;47.028;28.820;2023-04-07T04:14:01;100353.86;;;4.05;100.00
42067;BME280;27734;47.028;28.820;2023-04-07T04:16:33;100356.55;;;4.07;100.00
42067;BME280;27734;47.028;28.820;2023-04-07T04:19:09;100352.33;;;4.09;100.00
42067;BME280;27734;47.028;28.820;2023-04-07T04:21:41;100364.52;;;4.10;100.00
42067;BME280;27734;47.028;28.820;2023-04-07T04:24:14;100363.61;;;4.09;100.00
42067;BME280;27734;47.028;28.820;2023-04-07T04:26:47;100369.90;;;4.13;100.00
42067;BME280;27734;47.028;28.820;2023-04-07T04:29:20;100370.88;;;4.15;100.00
42067;BME280;27734;47.028;28.820;2023-04-07T04:31:53;100375.45;;;4.19;100.00
42067;BME280;27734;47.028;28.820;2023-04-07T04:34:26;100370.41;;;4.22;100.00
42067;BME280;27734;47.028;28.820;2023-04-07T04:36:58;100368.00;;;4.25;100.00
42067;BME280;27734;47.028;28.820;2023-04-07T04:39:31;100372.48;;;4.28;100.00
42067;BME280;27734;47.028;28.820;2023-04-07T04:42:04;100379.48;;;4.29;100.00
42067;BME280;27734;47.028;28.820;2023-04-07T04:44:39;100383.85;;;4.30;100.00
42067;BME280;27734;47.028;28.820;2023-04-07T04:47:11;100379.58;;;4.30;100.00
42067;BME280;27734;47.028;28.820;2023-04-07T04:49:44;100391.03;;;4.34;100.00
42067;BME280;27734;47.028;28.820;2023-04-07T04:52:18;100388.61;;;4.37;100.00
42067;BME280;27734;47.028;28.820;2023-04-07T04:54:54;100381.97;;;4.42;100.00
42067;BME280;27734;47.028;28.820;2023-04-07T04:57:27;100402.33;;;4.49;100.00
42067;BME280;27734;47.028;28.820;2023-04-07T05:00:00;100395.50;;;4.52;100.00
42067;BME280;27734;47.028;28.820;2023-04-07T05:02:33;100394.09;;;4.57;100.00
42067;BME280;27734;47.028;28.820;2023-04-07T05:05:08;100395.16;;;4.60;100.00
42067;BME280;27734;47.028;28.820;2023-04-07T05:07:44;100395.33;;;4.63;100.00
42067;BME280;27734;47.028;28.820;2023-04-07T05:10:17;100401.41;;;4.64;100.00
42067;BME280;27734;47.028;28.820;2023-04-07T05:12:53;100408.59;;;4.68;100.00
42067;BME280;27734;47.028;28.820;2023-04-07T05:15:25;100416.66;;;4.73;100.00
42067;BME280;27734;47.028;28.820;2023-04-07T05:17:58;100412.61;;;4.78;100.00
42067;BME280;27734;47.028;28.820;2023-04-07T05:20:31;100418.16;;;4.84;100.00
42067;BME280;27734;47.028;28.820;2023-04-07T05:23:04;100418.42;;;4.89;100.00
42067;BME280;27734;47.028;28.820;2023-04-07T05:25:40;100421.20;;;4.92;100.00
42067;BME280;27734;47.028;28.820;2023-04-07T05:28:14;100428.12;;;4.91;100.00
42067;BME280;27734;47.028;28.820;2023-04-07T05:30:48;100430.80;;;4.93;100.00
42067;BME280;27734;47.028;28.820;2023-04-07T05:33:21;100434.47;;;4.96;100.00
42067;BME280;27734;47.028;28.820;2023-04-07T05:35:56;100431.24;;;5.00;100.00
42067;BME280;27734;47.028;28.820;2023-04-07T05:38:29;100434.11;;;5.05;100.00
42067;BME280;27734;47.028;28.820;2023-04-07T05:41:01;100433.53;;;5.11;100.00
42067;BME280;27734;47.028;28.820;2023-04-07T05:43:37;100440.72;;;5.15;100.00
42067;BME280;27734;47.028;28.820;2023-04-07T05:46:13;100438.20;;;5.16;100.00
42067;BME280;27734;47.028;28.820;2023-04-07T05:48:52;100448.86;;;5.21;100.00
42067;BME280;27734;47.028;28.820;2023-04-07T05:51:31;100438.89;;;5.29;100.00
42067;BME280;27734;47.028;28.820;2023-04-07T05:54:04;100438.48;;;5.37;100.00
42067;BME280;27734;47.028;28.820;2023-04-07T05:56:37;100445.83;;;5.45;100.00
42067;BME280;27734;47.028;28.820;2023-04-07T05:59:10;100445.38;;;5.52;100.00
42067;BME280;27734;47.028;28.820;2023-04-07T06:01:44;100446.68;;;5.60;100.00
42067;BME280;27734;47.028;28.820;2023-04-07T06:04:17;100445.38;;;5.68;100.00
42067;BME280;27734;47.028;28.820;2023-04-07T06:06:51;100452.00;;;5.78;100.00
42067;BME280;27734;47.028;28.820;2023-04-07T06:09:25;100454.11;;;5.85;100.00
42067;BME280;27734;47.028;28.820;2023-04-07T06:11:59;100462.08;;;5.88;100.00
42067;BME280;27734;47.028;28.820;2023-04-07T06:17:36;100456.52;;;5.97;100.00
42067;BME280;27734;47.028;28.820;2023-04-07T06:20:15;100465.38;;;6.01;100.00
42067;BME280;27734;47.028;28.820;2023-04-07T06:22:56;100468.31;;;6.07;100.00
42067;BME280;27734;47.028;28.820;2023-04-07T06:25:31;100464.23;;;6.12;100.00
42067;BME280;27734;47.028;28.820;2023-04-07T06:28:09;100472.38;;;6.18;100.00
42067;BME280;27734;47.028;28.820;2023-04-07T06:30:59;100479.63;;;6.24;100.00
42067;BME280;27734;47.028;28.820;2023-04-07T06:33:31;100478.83;;;6.25;100.00
42067;BME280;27734;47.028;28.820;2023-04-07T06:36:04;100478.07;;;6.27;100.00
42067;BME280;27734;47.028;28.820;2023-04-07T06:38:45;100480.77;;;6.29;100.00
42067;BME280;27734;47.028;28.820;2023-04-07T06:41:24;100485.17;;;6.30;100.00
42067;BME280;27734;47.028;28.820;2023-04-07T06:44:05;100489.42;;;6.28;100.00
42067;BME280;27734;47.028;28.820;2023-04-07T06:46:39;100492.83;;;6.27;100.00
42067;BME280;27734;47.028;28.820;2023-04-07T06:49:14;100486.97;;;6.31;100.00
42067;BME280;27734;47.028;28.820;2023-04-07T06:51:56;100491.43;;;6.34;100.00
42067;BME280;27734;47.028;28.820;2023-04-07T06:54:29;100490.70;;;6.36;100.00
42067;BME280;27734;47.028;28.820;2023-04-07T06:57:01;100500.29;;;6.37;100.00
42067;BME280;27734;47.028;28.820;2023-04-07T06:59:43;100496.88;;;6.38;100.00
42067;BME280;27734;47.028;28.820;2023-04-07T07:02:15;100504.70;;;6.38;100.00
42067;BME280;27734;47.028;28.820;2023-04-07T07:04:48;100504.70;;;6.38;100.00
42067;BME280;27734;47.028;28.820;2023-04-07T07:07:21;100505.59;;;6.39;100.00
42067;BME280;27734;47.028;28.820;2023-04-07T07:09:55;100508.95;;;6.36;100.00
42067;BME280;27734;47.028;28.820;2023-04-07T07:12:28;100511.55;;;6.36;100.00
42067;BME280;27734;47.028;28.820;2023-04-07T07:15:07;100510.80;;;6.39;100.00
42067;BME280;27734;47.028;28.820;2023-04-07T07:17:42;100514.48;;;6.42;100.00
42067;BME280;27734;47.028;28.820;2023-04-07T07:20:14;100511.95;;;6.44;100.00
42067;BME280;27734;47.028;28.820;2023-04-07T07:22:47;100516.41;;;6.46;100.00
42067;BME280;27734;47.028;28.820;2023-04-07T07:25:20;100519.10;;;6.48;100.00
42067;BME280;27734;47.028;28.820;2023-04-07T07:28:00;100521.95;;;6.53;100.00
42067;BME280;27734;47.028;28.820;2023-04-07T07:30:32;100528.25;;;6.56;100.00
42067;BME280;27734;47.028;28.820;2023-04-07T07:33:04;100528.48;;;6.61;100.00
42067;BME280;27734;47.028;28.820;2023-04-07T07:35:40;100532.22;;;6.66;100.00
42067;BME280;27734;47.028;28.820;2023-04-07T07:38:13;100526.44;;;6.72;100.00
42067;BME280;27734;47.028;28.820;2023-04-07T07:40:55;100531.97;;;6.78;100.00
42067;BME280;27734;47.028;28.820;2023-04-07T07:43:31;100533.97;;;6.83;100.00
42067;BME280;27734;47.028;28.820;2023-04-07T07:46:25;100538.46;;;6.86;100.00
42067;BME280;27734;47.028;28.820;2023-04-07T07:49:12;100545.61;;;6.90;100.00
42067;BME280;27734;47.028;28.820;2023-04-07T07:51:46;100547.56;;;6.94;100.00
42067;BME280;27734;47.028;28.820;2023-04-07T07:54:21;100543.55;;;7.01;100.00
42067;BME280;27734;47.028;28.820;2023-04-07T07:56:53;100554.45;;;7.10;100.00
42067;BME280;27734;47.028;28.820;2023-04-07T07:59:28;100554.76;;;7.16;100.00
42067;BME280;27734;47.028;28.820;2023-04-07T08:02:03;100552.37;;;7.21;100.00
42067;BME280;27734;47.028;28.820;2023-04-07T08:04:41;100555.06;;;7.23;100.00
42067;BME280;27734;47.028;28.820;2023-04-07T08:07:14;100553.91;;;7.34;100.00
42067;BME280;27734;47.028;28.820;2023-04-07T08:09:49;100566.88;;;7.50;100.00
42067;BME280;27734;47.028;28.820;2023-04-07T08:12:23;100559.87;;;7.67;100.00
42067;BME280;27734;47.028;28.820;2023-04-07T08:14:56;100565.09;;;7.85;100.00
42067;BME280;27734;47.028;28.820;2023-04-07T08:17:32;100554.45;;;8.00;100.00
42067;BME280;27734;47.028;28.820;2023-04-07T08:20:15;100551.31;;;8.07;100.00
42067;BME280;27734;47.028;28.820;2023-04-07T08:22:47;100556.27;;;8.21;100.00
42067;BME280;27734;47.028;28.820;2023-04-07T08:25:20;100566.47;;;8.34;100.00
42067;BME280;27734;47.028;28.820;2023-04-07T08:27:52;100565.98;;;8.43;100.00
42067;BME280;27734;47.028;28.820;2023-04-07T08:30:25;100558.30;;;8.46;100.00
42067;BME280;27734;47.028;28.820;2023-04-07T08:33:04;100567.00;;;8.45;100.00
42067;BME280;27734;47.028;28.820;2023-04-07T08:35:42;100564.88;;;8.38;100.00
42067;BME280;27734;47.028;28.820;2023-04-07T08:38:14;100569.02;;;8.33;100.00
42067;BME280;27734;47.028;28.820;2023-04-07T08:40:57;100571.42;;;8.28;100.00
42067;BME280;27734;47.028;28.820;2023-04-07T08:43:36;100574.78;;;8.25;100.00
42067;BME280;27734;47.028;28.820;2023-04-07T08:46:13;100572.09;;;8.24;100.00
42067;BME280;27734;47.028;28.820;2023-04-07T08:48:54;100572.30;;;8.28;100.00
42067;BME280;27734;47.028;28.820;2023-04-07T08:51:30;100565.09;;;8.42;100.00
42067;BME280;27734;47.028;28.820;2023-04-07T08:54:08;100565.75;;;8.56;100.00
42067;BME280;27734;47.028;28.820;2023-04-07T08:56:44;100572.41;;;8.69;100.00
42067;BME280;27734;47.028;28.820;2023-04-07T08:59:20;100572.20;;;8.84;100.00
42067;BME280;27734;47.028;28.820;2023-04-07T09:04:57;100564.90;;;9.17;100.00
42067;BME280;27734;47.028;28.820;2023-04-07T09:07:32;100566.46;;;9.33;100.00
42067;BME280;27734;47.028;28.820;2023-04-07T09:10:07;100565.42;;;9.51;100.00
42067;BME280;27734;47.028;28.820;2023-04-07T09:12:40;100571.42;;;9.69;100.00
42067;BME280;27734;47.028;28.820;2023-04-07T09:15:14;100570.93;;;9.80;100.00
42067;BME280;27734;47.028;28.820;2023-04-07T09:17:47;100567.16;;;9.94;100.00
42067;BME280;27734;47.028;28.820;2023-04-07T09:20:55;100565.84;;;10.05;100.00
42067;BME280;27734;47.028;28.820;2023-04-07T09:23:37;100573.38;;;10.20;100.00
42067;BME280;27734;47.028;28.820;2023-04-07T09:26:25;100572.03;;;10.30;100.00
42067;BME280;27734;47.028;28.820;2023-04-07T09:28:59;100561.34;;;10.48;100.00
42067;BME280;27734;47.028;28.820;2023-04-07T09:31:46;100567.05;;;10.60;100.00
42067;BME280;27734;47.028;28.820;2023-04-07T09:34:26;100565.64;;;10.70;100.00
42067;BME280;27734;47.028;28.820;2023-04-07T09:37:00;100567.05;;;10.85;100.00
42067;BME280;27734;47.028;28.820;2023-04-07T09:39:33;100567.94;;;10.85;100.00
42067;BME280;27734;47.028;28.820;2023-04-07T09:42:06;100566.14;;;10.84;100.00
42067;BME280;27734;47.028;28.820;2023-04-07T09:44:44;100576.86;;;10.90;100.00
42067;BME280;27734;47.028;28.820;2023-04-07T09:47:30;100566.73;;;11.01;100.00
42067;BME280;27734;47.028;28.820;2023-04-07T09:50:03;100567.70;;;11.03;100.00
42067;BME280;27734;47.028;28.820;2023-04-07T09:52:52;100576.68;;;11.10;100.00
42067;BME280;27734;47.028;28.820;2023-04-07T09:55:27;100569.79;;;11.13;100.00
42067;BME280;27734;47.028;28.820;2023-04-07T09:58:00;100575.42;;;10.99;98.17
42067;BME280;27734;47.028;28.820;2023-04-07T10:00:36;100578.92;;;10.99;100.00
42067;BME280;27734;47.028;28.820;2023-04-07T10:03:09;100573.73;;;11.01;100.00
42067;BME280;27734;47.028;28.820;2023-04-07T10:06:02;100579.75;;;10.98;100.00
42067;BME280;27734;47.028;28.820;2023-04-07T10:08:39;100565.25;;;10.84;100.00
42067;BME280;27734;47.028;28.820;2023-04-07T10:11:24;100586.14;;;10.81;100.00
42067;BME280;27734;47.028;28.820;2023-04-07T10:14:02;100587.72;;;10.75;96.51
42067;BME280;27734;47.028;28.820;2023-04-07T10:16:39;100578.76;;;10.70;98.25
42067;BME280;27734;47.028;28.820;2023-04-07T10:19:18;100585.27;;;10.80;98.70
42067;BME280;27734;47.028;28.820;2023-04-07T10:21:53;100591.78;;;10.91;100.00
42067;BME280;27734;47.028;28.820;2023-04-07T10:24:43;100599.16;;;11.02;100.00
42067;BME280;27734;47.028;28.820;2023-04-07T10:27:44;100594.57;;;10.96;98.96
42067;BME280;27734;47.028;28.820;2023-04-07T10:30:32;100592.16;;;11.02;100.00
42067;BME280;27734;47.028;28.820;2023-04-07T10:33:14;100608.19;;;11.10;100.00
42067;BME280;27734;47.028;28.820;2023-04-07T10:36:06;100612.40;;;11.05;100.00
42067;BME280;27734;47.028;28.820;2023-04-07T10:42:45;100615.10;;;10.59;100.00
42067;BME280;27734;47.028;28.820;2023-04-07T10:52:27;100608.62;;;10.27;100.00
42067;BME280;27734;47.028;28.820;2023-04-07T10:55:32;100606.83;;;10.26;100.00
42067;BME280;27734;47.028;28.820;2023-04-07T10:58:18;100605.27;;;10.31;100.00
42067;BME280;27734;47.028;28.820;2023-04-07T11:01:18;100602.20;;;10.41;100.00
42067;BME280;27734;47.028;28.820;2023-04-07T11:04:04;100603.07;;;10.65;100.00
42067;BME280;27734;47.028;28.820;2023-04-07T11:06:51;100602.89;;;10.84;100.00
42067;BME280;27734;47.028;28.820;2023-04-07T11:09:27;100609.23;;;11.15;100.00
42067;BME280;27734;47.028;28.820;2023-04-07T11:12:07;100602.93;;;11.36;100.00
42067;BME280;27734;47.028;28.820;2023-04-07T11:14:42;100605.05;;;11.46;98.48
42067;BME280;27734;47.028;28.820;2023-04-07T11:17:19;100601.08;;;11.59;97.47
42067;BME280;27734;47.028;28.820;2023-04-07T11:19:55;100599.33;;;11.59;94.47
42067;BME280;27734;47.028;28.820;2023-04-07T11:22:31;100597.83;;;11.66;100.00
42067;BME280;27734;47.028;28.820;2023-04-07T11:25:20;100603.86;;;11.63;98.51
42067;BME280;27734;47.028;28.820;2023-04-07T11:27:59;100609.83;;;11.58;95.40
42067;BME280;27734;47.028;28.820;2023-04-07T11:30:33;100604.58;;;11.58;97.89
42067;BME280;27734;47.028;28.820;2023-04-07T11:33:15;100599.44;;;11.62;98.39
42067;BME280;27734;47.028;28.820;2023-04-07T11:36:32;100609.42;;;11.73;100.00
42067;BME280;27734;47.028;28.820;2023-04-07T11:39:28;100605.71;;;11.66;97.73
42067;BME280;27734;47.028;28.820;2023-04-07T11:42:15;100603.81;;;11.62;97.84
42067;BME280;27734;47.028;28.820;2023-04-07T11:45:14;100601.12;;;11.60;98.17
42067;BME280;27734;47.028;28.820;2023-04-07T11:48:13;100604.27;;;11.48;96.59
42067;BME280;27734;47.028;28.820;2023-04-07T11:51:01;100602.00;;;11.33;97.46
42067;BME280;27734;47.028;28.820;2023-04-07T11:53:34;100607.81;;;11.25;98.15
42067;BME280;27734;47.028;28.820;2023-04-07T11:56:11;100608.08;;;11.07;98.00
42067;BME280;27734;47.028;28.820;2023-04-07T11:58:53;100609.39;;;10.94;98.44
42067;BME280;27734;47.028;28.820;2023-04-07T12:01:42;100613.16;;;10.78;96.93
42067;BME280;27734;47.028;28.820;2023-04-07T12:04:17;100609.14;;;10.64;98.62
42067;BME280;27734;47.028;28.820;2023-04-07T12:07:14;100611.36;;;10.53;97.90
42067;BME280;27734;47.028;28.820;2023-04-07T12:13:14;100608.51;;;10.47;99.44
42067;BME280;27734;47.028;28.820;2023-04-07T12:15:59;100614.79;;;10.50;99.25
42067;BME280;27734;47.028;28.820;2023-04-07T12:18:38;100611.25;;;10.50;98.50
42067;BME280;27734;47.028;28.820;2023-04-07T12:21:19;100612.16;;;10.50;98.81
42067;BME280;27734;47.028;28.820;2023-04-07T12:23:55;100618.23;;;10.49;98.69
42067;BME280;27734;47.028;28.820;2023-04-07T12:26:29;100616.27;;;10.43;99.13
42067;BME280;27734;47.028;28.820;2023-04-07T12:29:06;100622.25;;;10.39;99.27
42067;BME280;27734;47.028;28.820;2023-04-07T12:31:39;100633.17;;;10.29;99.77
42067;BME280;27734;47.028;28.820;2023-04-07T12:34:19;100635.44;;;10.20;99.87
42067;BME280;27734;47.028;28.820;2023-04-07T12:39:37;100638.94;;;9.98;100.00
42067;BME280;27734;47.028;28.820;2023-04-07T12:45:20;100637.42;;;9.61;100.00
42067;BME280;27734;47.028;28.820;2023-04-07T12:48:03;100648.17;;;9.46;100.00
42067;BME280;27734;47.028;28.820;2023-04-07T12:50:41;100647.58;;;9.32;100.00
42067;BME280;27734;47.028;28.820;2023-04-07T12:53:30;100644.36;;;9.18;100.00
42067;BME280;27734;47.028;28.820;2023-04-07T12:56:05;100661.30;;;9.07;100.00
42067;BME280;27734;47.028;28.820;2023-04-07T12:58:40;100657.45;;;8.98;100.00
42067;BME280;27734;47.028;28.820;2023-04-07T13:01:16;100660.50;;;8.88;100.00
42067;BME280;27734;47.028;28.820;2023-04-07T13:04:01;100655.80;;;8.81;100.00
42067;BME280;27734;47.028;28.820;2023-04-07T13:06:34;100661.50;;;8.72;100.00
42067;BME280;27734;47.028;28.820;2023-04-07T13:09:07;100665.71;;;8.69;100.00
42067;BME280;27734;47.028;28.820;2023-04-07T13:11:51;100665.50;;;8.64;100.00
42067;BME280;27734;47.028;28.820;2023-04-07T13:14:35;100668.11;;;8.64;100.00
42067;BME280;27734;47.028;28.820;2023-04-07T13:17:12;100671.02;;;8.70;100.00
42067;BME280;27734;47.028;28.820;2023-04-07T13:19:48;100668.89;;;8.81;100.00
42067;BME280;27734;47.028;28.820;2023-04-07T13:22:28;100676.34;;;8.91;100.00
42067;BME280;27734;47.028;28.820;2023-04-07T13:25:02;100681.08;;;9.00;100.00
42067;BME280;27734;47.028;28.820;2023-04-07T13:27:34;100671.90;;;9.10;100.00
42067;BME280;27734;47.028;28.820;2023-04-07T13:30:12;100671.42;;;9.18;100.00
42067;BME280;27734;47.028;28.820;2023-04-07T13:32:47;100670.67;;;9.21;100.00
42067;BME280;27734;47.028;28.820;2023-04-07T13:35:24;100675.91;;;9.21;100.00
42067;BME280;27734;47.028;28.820;2023-04-07T13:38:05;100678.13;;;9.12;100.00
42067;BME280;27734;47.028;28.820;2023-04-07T13:41:03;100677.64;;;9.01;100.00
42067;BME280;27734;47.028;28.820;2023-04-07T13:43:39;100683.48;;;8.95;100.00
42067;BME280;27734;47.028;28.820;2023-04-07T13:49:19;100689.29;;;8.88;100.00
42067;BME280;27734;47.028;28.820;2023-04-07T13:51:58;100680.23;;;8.81;100.00
42067;BME280;27734;47.028;28.820;2023-04-07T13:54:39;100686.18;;;8.77;100.00
42067;BME280;27734;47.028;28.820;2023-04-07T13:57:34;100677.27;;;8.74;100.00
42067;BME280;27734;47.028;28.820;2023-04-07T14:00:13;100676.31;;;8.72;100.00